This is the latest recevied weather packets stored in our database for station/object KF6GPE. If no packets are shown the sender has not sent any weather packets the latest 10 day(s).
| Time | Temp. | Humidity | Pressure | Rain* | Wind** | Luminosity | Snow |
|---|---|---|---|---|---|---|---|
| 1777590003 | 21.67° C | 56% | 986.2 hPa | 0 mm | - | 1063 W/m² | - |
| 1777589403 | 22.22° C | 60% | 986.4 hPa | 0 mm | - | 1066 W/m² | - |
| 1777588803 | 22.22° C | 60% | 986.4 hPa | 0 mm | - | 1069 W/m² | - |
| 1777587604 | 22.22° C | 61% | 986.6 hPa | 0 mm | - | 1075 W/m² | - |
| 1777586403 | 22.78° C | 61% | 986.7 hPa | 0 mm | - | 1080 W/m² | - |
| 1777585803 | 22.22° C | 62% | 986.7 hPa | 0 mm | - | 1083 W/m² | - |
| 1777585203 | 22.78° C | 60% | 986.8 hPa | 0 mm | - | 1084 W/m² | - |
| 1777584003 | 23.33° C | 59% | 986.8 hPa | 0 mm | - | 1088 W/m² | - |
| 1777583403 | 23.33° C | 59% | 986.8 hPa | 0 mm | - | 1090 W/m² | - |
| 1777582804 | 23.89° C | 59% | 986.8 hPa | 0 mm | - | 1091 W/m² | - |
| 1777581005 | 23.89° C | 54% | 986.9 hPa | 0 mm | - | 1094 W/m² | - |
| 1777580404 | 23.33° C | 54% | 986.9 hPa | 0 mm | - | 1094 W/m² | - |
| 1777579803 | 22.78° C | 55% | 987 hPa | 0 mm | - | 1095 W/m² | - |
| 1777579205 | 22.78° C | 56% | 987.1 hPa | 0 mm | - | 1095 W/m² | - |
| 1777578603 | 22.22° C | 57% | 987.2 hPa | 0 mm | - | 1095 W/m² | - |
| 1777578003 | 22.22° C | 57% | 987.4 hPa | 0 mm | - | 1094 W/m² | - |
| 1777577403 | 22.22° C | 58% | 987.6 hPa | 0 mm | - | 1094 W/m² | - |
| 1777576803 | 21.67° C | 59% | 987.6 hPa | 0 mm | - | 1093 W/m² | - |
| 1777576203 | 21.67° C | 60% | 987.7 hPa | 0 mm | - | 1092 W/m² | - |
| 1777575603 | 21.11° C | 59% | 987.8 hPa | 0 mm | - | 1091 W/m² | - |
| 1777575003 | 20.56° C | 61% | 987.9 hPa | 0 mm | - | 1090 W/m² | - |
| 1777574403 | 20° C | 60% | 988 hPa | 0 mm | - | 1088 W/m² | - |
| 1777573803 | 19.44° C | 61% | 988.1 hPa | 0 mm | - | 1086 W/m² | - |
| 1777573203 | 18.89° C | 64% | 988.2 hPa | 0 mm | - | 1084 W/m² | - |
| 1777572003 | 17.78° C | 65% | 988.4 hPa | 0 mm | - | 1080 W/m² | - |
* Rain latest hour (hover to see other rain measurements)
** Current wind speed in m/s (hover to see current wind gust speed)